sensor_id;sensor_type;location;lat;lon;timestamp;pressure;altitude;pressure_sealevel;temperature;humidity
27202;BME280;14717;46.924;15.474;2023-01-27T00:00:11;97830.78;;;1.35;98.67
27202;BME280;14717;46.924;15.474;2023-01-27T00:02:38;97825.78;;;1.32;99.41
27202;BME280;14717;46.924;15.474;2023-01-27T00:05:04;97828.75;;;1.31;99.72
27202;BME280;14717;46.924;15.474;2023-01-27T00:07:29;97822.59;;;1.35;98.85
27202;BME280;14717;46.924;15.474;2023-01-27T00:09:54;97827.69;;;1.43;99.37
27202;BME280;14717;46.924;15.474;2023-01-27T00:12:23;97823.31;;;1.42;98.25
27202;BME280;14717;46.924;15.474;2023-01-27T00:15:10;97824.28;;;1.36;98.42
27202;BME280;14717;46.924;15.474;2023-01-27T00:17:36;97826.38;;;1.34;97.69
27202;BME280;14717;46.924;15.474;2023-01-27T00:20:02;97825.31;;;1.35;98.07
27202;BME280;14717;46.924;15.474;2023-01-27T00:22:28;97820.34;;;1.32;96.57
27202;BME280;14717;46.924;15.474;2023-01-27T00:25:12;97816.34;;;1.35;97.02
27202;BME280;14717;46.924;15.474;2023-01-27T00:27:37;97822.72;;;1.29;96.58
27202;BME280;14717;46.924;15.474;2023-01-27T00:30:05;97817.63;;;1.32;96.29
27202;BME280;14717;46.924;15.474;2023-01-27T00:32:33;97826.88;;;1.31;96.98
27202;BME280;14717;46.924;15.474;2023-01-27T00:35:18;97823.06;;;1.32;97.60
27202;BME280;14717;46.924;15.474;2023-01-27T00:37:44;97819.53;;;1.32;96.82
27202;BME280;14717;46.924;15.474;2023-01-27T00:40:13;97815.13;;;1.31;96.37
27202;BME280;14717;46.924;15.474;2023-01-27T00:42:39;97825.19;;;1.30;96.75
27202;BME280;14717;46.924;15.474;2023-01-27T00:45:05;97819.66;;;1.37;96.29
27202;BME280;14717;46.924;15.474;2023-01-27T00:47:50;97819.88;;;1.35;96.24
27202;BME280;14717;46.924;15.474;2023-01-27T00:50:16;97820.13;;;1.45;96.20
27202;BME280;14717;46.924;15.474;2023-01-27T00:52:42;97826.16;;;1.36;95.25
27202;BME280;14717;46.924;15.474;2023-01-27T00:55:08;97822.38;;;1.37;96.05
27202;BME280;14717;46.924;15.474;2023-01-27T00:57:40;97827.00;;;1.36;95.51
27202;BME280;14717;46.924;15.474;2023-01-27T01:00:06;97825.09;;;1.37;96.07
27202;BME280;14717;46.924;15.474;2023-01-27T01:02:36;97828.50;;;1.32;94.66
27202;BME280;14717;46.924;15.474;2023-01-27T01:05:01;97830.31;;;1.38;95.95
27202;BME280;14717;46.924;15.474;2023-01-27T01:07:29;97826.50;;;1.39;95.30
27202;BME280;14717;46.924;15.474;2023-01-27T01:09:55;97840.34;;;1.38;94.37
27202;BME280;14717;46.924;15.474;2023-01-27T01:12:20;97833.72;;;1.34;93.01
27202;BME280;14717;46.924;15.474;2023-01-27T01:14:45;97835.16;;;1.36;93.64
27202;BME280;14717;46.924;15.474;2023-01-27T01:17:11;97826.63;;;1.33;92.23
27202;BME280;14717;46.924;15.474;2023-01-27T01:19:38;97824.50;;;1.35;92.36
27202;BME280;14717;46.924;15.474;2023-01-27T01:22:04;97828.03;;;1.35;92.44
27202;BME280;14717;46.924;15.474;2023-01-27T01:24:29;97830.78;;;1.35;92.77
27202;BME280;14717;46.924;15.474;2023-01-27T01:26:54;97823.06;;;1.32;92.26
27202;BME280;14717;46.924;15.474;2023-01-27T01:29:20;97827.47;;;1.33;92.86
27202;BME280;14717;46.924;15.474;2023-01-27T01:31:45;97829.72;;;1.36;93.09
27202;BME280;14717;46.924;15.474;2023-01-27T01:34:10;97823.19;;;1.37;92.24
27202;BME280;14717;46.924;15.474;2023-01-27T01:36:36;97822.38;;;1.37;92.57
27202;BME280;14717;46.924;15.474;2023-01-27T01:39:01;97814.22;;;1.48;93.29
27202;BME280;14717;46.924;15.474;2023-01-27T01:41:26;97818.69;;;1.54;92.52
27202;BME280;14717;46.924;15.474;2023-01-27T01:43:52;97818.69;;;1.54;92.82
27202;BME280;14717;46.924;15.474;2023-01-27T01:46:18;97816.34;;;1.46;91.94
27202;BME280;14717;46.924;15.474;2023-01-27T01:48:53;97809.94;;;1.52;94.62
27202;BME280;14717;46.924;15.474;2023-01-27T01:51:30;97812.78;;;1.57;95.15
27202;BME280;14717;46.924;15.474;2023-01-27T01:54:20;97800.72;;;1.65;95.12
27202;BME280;14717;46.924;15.474;2023-01-27T01:57:25;97809.00;;;1.58;93.64
27202;BME280;14717;46.924;15.474;2023-01-27T01:59:55;97806.38;;;1.63;94.71
27202;BME280;14717;46.924;15.474;2023-01-27T02:02:23;97799.88;;;1.64;94.64
27202;BME280;14717;46.924;15.474;2023-01-27T02:05:03;97798.22;;;1.63;94.08
27202;BME280;14717;46.924;15.474;2023-01-27T02:07:34;97808.25;;;1.63;93.31
27202;BME280;14717;46.924;15.474;2023-01-27T02:10:03;97802.00;;;1.62;94.28
27202;BME280;14717;46.924;15.474;2023-01-27T02:12:29;97792.91;;;1.57;93.50
27202;BME280;14717;46.924;15.474;2023-01-27T02:14:54;97793.03;;;1.50;91.98
27202;BME280;14717;46.924;15.474;2023-01-27T02:17:19;97805.47;;;1.46;92.72
27202;BME280;14717;46.924;15.474;2023-01-27T02:19:57;97802.34;;;1.54;93.99
27202;BME280;14717;46.924;15.474;2023-01-27T02:22:38;97801.19;;;1.50;94.00
27202;BME280;14717;46.924;15.474;2023-01-27T02:25:13;97801.19;;;1.50;95.30
27202;BME280;14717;46.924;15.474;2023-01-27T02:27:41;97800.13;;;1.51;95.41
27202;BME280;14717;46.924;15.474;2023-01-27T02:30:07;97800.59;;;1.37;95.27
27202;BME280;14717;46.924;15.474;2023-01-27T02:32:33;97795.63;;;1.34;95.47
27202;BME280;14717;46.924;15.474;2023-01-27T02:34:59;97790.31;;;1.39;95.92
27202;BME280;14717;46.924;15.474;2023-01-27T02:37:25;97794.09;;;1.49;96.28
27202;BME280;14717;46.924;15.474;2023-01-27T02:39:51;97790.78;;;1.47;95.29
27202;BME280;14717;46.924;15.474;2023-01-27T02:42:18;97789.97;;;1.47;95.61
27202;BME280;14717;46.924;15.474;2023-01-27T02:44:43;97791.59;;;1.48;95.91
27202;BME280;14717;46.924;15.474;2023-01-27T02:47:09;97789.13;;;1.46;96.30
27202;BME280;14717;46.924;15.474;2023-01-27T02:49:34;97787.13;;;1.53;96.11
27202;BME280;14717;46.924;15.474;2023-01-27T02:51:59;97785.44;;;1.41;95.74
27202;BME280;14717;46.924;15.474;2023-01-27T02:54:26;97781.56;;;1.37;95.61
27202;BME280;14717;46.924;15.474;2023-01-27T02:56:52;97788.19;;;1.41;96.56
27202;BME280;14717;46.924;15.474;2023-01-27T02:59:17;97779.19;;;1.40;96.72
27202;BME280;14717;46.924;15.474;2023-01-27T03:01:43;97785.81;;;1.44;97.33
27202;BME280;14717;46.924;15.474;2023-01-27T03:04:08;97777.63;;;1.44;96.39
27202;BME280;14717;46.924;15.474;2023-01-27T03:06:36;97780.63;;;1.31;95.66
27202;BME280;14717;46.924;15.474;2023-01-27T03:09:02;97775.78;;;1.33;94.86
27202;BME280;14717;46.924;15.474;2023-01-27T03:11:27;97777.78;;;1.15;95.08
27202;BME280;14717;46.924;15.474;2023-01-27T03:14:11;97777.16;;;1.13;93.35
27202;BME280;14717;46.924;15.474;2023-01-27T03:16:36;97769.88;;;1.14;93.02
27202;BME280;14717;46.924;15.474;2023-01-27T03:19:20;97769.00;;;1.25;93.53
27202;BME280;14717;46.924;15.474;2023-01-27T03:21:45;97769.88;;;1.36;94.63
27202;BME280;14717;46.924;15.474;2023-01-27T03:24:15;97766.88;;;1.49;93.96
27202;BME280;14717;46.924;15.474;2023-01-27T03:26:40;97762.16;;;1.45;94.13
27202;BME280;14717;46.924;15.474;2023-01-27T03:29:06;97778.72;;;1.43;93.23
27202;BME280;14717;46.924;15.474;2023-01-27T03:31:50;97762.88;;;1.40;94.13
27202;BME280;14717;46.924;15.474;2023-01-27T03:34:15;97766.06;;;1.49;94.71
27202;BME280;14717;46.924;15.474;2023-01-27T03:36:40;97759.91;;;1.53;94.21
27202;BME280;14717;46.924;15.474;2023-01-27T03:39:24;97756.09;;;1.54;94.06
27202;BME280;14717;46.924;15.474;2023-01-27T03:42:08;97759.53;;;1.61;93.37
27202;BME280;14717;46.924;15.474;2023-01-27T03:44:52;97763.69;;;1.52;93.43
27202;BME280;14717;46.924;15.474;2023-01-27T03:47:36;97761.09;;;1.34;94.73
27202;BME280;14717;46.924;15.474;2023-01-27T03:50:01;97766.41;;;1.29;95.57
27202;BME280;14717;46.924;15.474;2023-01-27T03:52:27;97755.66;;;1.34;96.09
27202;BME280;14717;46.924;15.474;2023-01-27T03:54:52;97750.56;;;1.38;95.96
27202;BME280;14717;46.924;15.474;2023-01-27T03:57:17;97749.84;;;1.42;95.37
27202;BME280;14717;46.924;15.474;2023-01-27T03:59:42;97753.53;;;1.36;95.16
27202;BME280;14717;46.924;15.474;2023-01-27T04:02:08;97754.72;;;1.29;96.49
27202;BME280;14717;46.924;15.474;2023-01-27T04:04:52;97758.50;;;1.28;95.89
27202;BME280;14717;46.924;15.474;2023-01-27T04:07:36;97768.56;;;1.27;96.46
27202;BME280;14717;46.924;15.474;2023-01-27T04:10:03;97757.91;;;1.26;95.83
27202;BME280;14717;46.924;15.474;2023-01-27T04:12:29;97755.31;;;1.20;96.14
27202;BME280;14717;46.924;15.474;2023-01-27T04:14:54;97752.69;;;1.25;95.26
27202;BME280;14717;46.924;15.474;2023-01-27T04:17:20;97756.38;;;1.19;95.66
27202;BME280;14717;46.924;15.474;2023-01-27T04:19:45;97751.06;;;1.24;96.78
27202;BME280;14717;46.924;15.474;2023-01-27T04:22:12;97757.66;;;1.27;97.29
27202;BME280;14717;46.924;15.474;2023-01-27T04:24:38;97749.88;;;1.20;97.10
27202;BME280;14717;46.924;15.474;2023-01-27T04:27:05;97758.59;;;1.22;97.89
27202;BME280;14717;46.924;15.474;2023-01-27T04:29:33;97749.03;;;1.30;97.81
27202;BME280;14717;46.924;15.474;2023-01-27T04:32:00;97747.25;;;1.25;96.58
27202;BME280;14717;46.924;15.474;2023-01-27T04:34:26;97748.00;;;1.31;96.75
27202;BME280;14717;46.924;15.474;2023-01-27T04:36:52;97748.44;;;1.40;96.18
27202;BME280;14717;46.924;15.474;2023-01-27T04:39:18;97744.88;;;1.39;96.88
27202;BME280;14717;46.924;15.474;2023-01-27T04:41:44;97747.72;;;1.44;96.95
27202;BME280;14717;46.924;15.474;2023-01-27T04:44:10;97749.38;;;1.45;95.31
27202;BME280;14717;46.924;15.474;2023-01-27T04:46:36;97750.22;;;1.34;96.11
27202;BME280;14717;46.924;15.474;2023-01-27T04:49:02;97753.44;;;1.31;96.94
27202;BME280;14717;46.924;15.474;2023-01-27T04:51:28;97750.56;;;1.38;96.93
27202;BME280;14717;46.924;15.474;2023-01-27T04:53:54;97760.97;;;1.41;96.94
27202;BME280;14717;46.924;15.474;2023-01-27T04:58:47;97748.91;;;1.37;96.11
27202;BME280;14717;46.924;15.474;2023-01-27T05:01:12;97755.88;;;1.33;96.19
27202;BME280;14717;46.924;15.474;2023-01-27T05:03:38;97758.38;;;1.34;96.63
27202;BME280;14717;46.924;15.474;2023-01-27T05:06:03;97750.31;;;1.39;96.58
27202;BME280;14717;46.924;15.474;2023-01-27T05:08:29;97760.03;;;1.35;96.83
27202;BME280;14717;46.924;15.474;2023-01-27T05:10:54;97762.75;;;1.24;96.33
27202;BME280;14717;46.924;15.474;2023-01-27T05:13:19;97754.84;;;1.23;97.53
27202;BME280;14717;46.924;15.474;2023-01-27T05:15:45;97760.16;;;1.29;97.64
27202;BME280;14717;46.924;15.474;2023-01-27T05:18:10;97751.88;;;1.35;97.97
27202;BME280;14717;46.924;15.474;2023-01-27T05:20:36;97754.00;;;1.45;97.64
27202;BME280;14717;46.924;15.474;2023-01-27T05:23:01;97762.41;;;1.43;97.62
27202;BME280;14717;46.924;15.474;2023-01-27T05:25:45;97762.16;;;1.45;97.69
27202;BME280;14717;46.924;15.474;2023-01-27T05:28:11;97769.47;;;1.44;97.06
27202;BME280;14717;46.924;15.474;2023-01-27T05:30:36;97766.66;;;1.39;97.53
27202;BME280;14717;46.924;15.474;2023-01-27T05:33:02;97764.66;;;1.35;96.31
27202;BME280;14717;46.924;15.474;2023-01-27T05:35:27;97768.78;;;1.37;96.98
27202;BME280;14717;46.924;15.474;2023-01-27T05:37:56;97779.44;;;1.39;96.68
27202;BME280;14717;46.924;15.474;2023-01-27T05:40:22;97781.91;;;1.40;96.92
27202;BME280;14717;46.924;15.474;2023-01-27T05:42:50;97779.31;;;1.34;95.74
27202;BME280;14717;46.924;15.474;2023-01-27T05:45:15;97771.75;;;1.36;96.89
27202;BME280;14717;46.924;15.474;2023-01-27T05:47:41;97777.88;;;1.43;96.60
27202;BME280;14717;46.924;15.474;2023-01-27T05:50:07;97770.81;;;1.42;96.39
27202;BME280;14717;46.924;15.474;2023-01-27T05:52:32;97773.88;;;1.34;96.36
27202;BME280;14717;46.924;15.474;2023-01-27T05:54:57;97773.06;;;1.33;96.55
27202;BME280;14717;46.924;15.474;2023-01-27T05:57:23;97775.19;;;1.31;97.04
27202;BME280;14717;46.924;15.474;2023-01-27T05:59:48;97770.44;;;1.38;96.89
27202;BME280;14717;46.924;15.474;2023-01-27T06:02:13;97773.28;;;1.43;96.64
27202;BME280;14717;46.924;15.474;2023-01-27T06:04:39;97779.06;;;1.47;96.44
27202;BME280;14717;46.924;15.474;2023-01-27T06:07:04;97781.56;;;1.48;96.50
27202;BME280;14717;46.924;15.474;2023-01-27T06:09:30;97781.81;;;1.35;96.48
27202;BME280;14717;46.924;15.474;2023-01-27T06:11:55;97779.53;;;1.32;97.90
27202;BME280;14717;46.924;15.474;2023-01-27T06:14:21;97779.44;;;1.27;97.76
27202;BME280;14717;46.924;15.474;2023-01-27T06:16:46;97781.69;;;1.30;97.54
27202;BME280;14717;46.924;15.474;2023-01-27T06:19:11;97769.88;;;1.36;98.51
27202;BME280;14717;46.924;15.474;2023-01-27T06:21:37;97783.47;;;1.36;97.74
27202;BME280;14717;46.924;15.474;2023-01-27T06:24:02;97781.56;;;1.37;98.01
27202;BME280;14717;46.924;15.474;2023-01-27T06:26:28;97784.63;;;1.40;97.95
27202;BME280;14717;46.924;15.474;2023-01-27T06:28:55;97787.94;;;1.42;97.11
27202;BME280;14717;46.924;15.474;2023-01-27T06:31:20;97777.63;;;1.44;97.18
27202;BME280;14717;46.924;15.474;2023-01-27T06:33:46;97772.09;;;1.39;97.79
27202;BME280;14717;46.924;15.474;2023-01-27T06:36:14;97771.97;;;1.34;97.62
27202;BME280;14717;46.924;15.474;2023-01-27T06:38:41;97773.53;;;1.19;99.15
27202;BME280;14717;46.924;15.474;2023-01-27T06:41:06;97774.34;;;1.20;99.95
27202;BME280;14717;46.924;15.474;2023-01-27T06:43:32;97769.63;;;1.27;99.51
27202;BME280;14717;46.924;15.474;2023-01-27T06:45:57;97777.91;;;1.31;99.43
27202;BME280;14717;46.924;15.474;2023-01-27T06:48:23;97765.00;;;1.38;99.87
27202;BME280;14717;46.924;15.474;2023-01-27T06:50:49;97775.19;;;1.31;98.96
27202;BME280;14717;46.924;15.474;2023-01-27T06:53:15;97776.59;;;1.23;98.83
27202;BME280;14717;46.924;15.474;2023-01-27T06:55:40;97782.84;;;1.23;99.36
27202;BME280;14717;46.924;15.474;2023-01-27T06:58:13;97780.63;;;1.31;99.52
27202;BME280;14717;46.924;15.474;2023-01-27T07:00:40;97781.81;;;1.35;99.13
27202;BME280;14717;46.924;15.474;2023-01-27T07:03:08;97791.38;;;1.38;99.35
27202;BME280;14717;46.924;15.474;2023-01-27T07:05:34;97780.47;;;1.38;98.34
27202;BME280;14717;46.924;15.474;2023-01-27T07:08:00;97784.63;;;1.40;99.06
27202;BME280;14717;46.924;15.474;2023-01-27T07:10:26;97783.94;;;1.45;98.56
27202;BME280;14717;46.924;15.474;2023-01-27T07:12:51;97783.09;;;1.44;97.64
27202;BME280;14717;46.924;15.474;2023-01-27T07:15:17;97792.91;;;1.45;97.93
27202;BME280;14717;46.924;15.474;2023-01-27T07:17:42;97792.91;;;1.45;98.41
27202;BME280;14717;46.924;15.474;2023-01-27T07:20:10;97790.91;;;1.41;98.85
27202;BME280;14717;46.924;15.474;2023-01-27T07:22:36;97803.22;;;1.43;99.23
27202;BME280;14717;46.924;15.474;2023-01-27T07:25:03;97804.03;;;1.44;97.97
27202;BME280;14717;46.924;15.474;2023-01-27T07:27:28;97797.41;;;1.40;99.08
27202;BME280;14717;46.924;15.474;2023-01-27T07:29:54;97799.41;;;1.33;98.92
27202;BME280;14717;46.924;15.474;2023-01-27T07:32:19;97803.09;;;1.38;99.27
27202;BME280;14717;46.924;15.474;2023-01-27T07:34:44;97804.25;;;1.42;99.15
27202;BME280;14717;46.924;15.474;2023-01-27T07:37:10;97800.97;;;1.40;99.55
27202;BME280;14717;46.924;15.474;2023-01-27T07:39:36;97803.44;;;1.42;98.82
27202;BME280;14717;46.924;15.474;2023-01-27T07:42:02;97813.00;;;1.44;99.01
27202;BME280;14717;46.924;15.474;2023-01-27T07:44:28;97808.66;;;1.43;98.37
27202;BME280;14717;46.924;15.474;2023-01-27T07:46:54;97809.13;;;1.40;99.38
27202;BME280;14717;46.924;15.474;2023-01-27T07:49:19;97815.50;;;1.46;98.74
27202;BME280;14717;46.924;15.474;2023-01-27T07:51:45;97816.47;;;1.51;98.63
27202;BME280;14717;46.924;15.474;2023-01-27T07:54:11;97812.44;;;1.54;97.86
27202;BME280;14717;46.924;15.474;2023-01-27T07:56:36;97808.66;;;1.55;97.74
27202;BME280;14717;46.924;15.474;2023-01-27T07:59:02;97812.44;;;1.54;97.24
27202;BME280;14717;46.924;15.474;2023-01-27T08:01:27;97812.06;;;1.50;96.14
27202;BME280;14717;46.924;15.474;2023-01-27T08:03:53;97810.78;;;1.41;95.74
27202;BME280;14717;46.924;15.474;2023-01-27T08:06:18;97814.69;;;1.45;95.76
27202;BME280;14717;46.924;15.474;2023-01-27T08:08:44;97818.34;;;1.39;94.89
27202;BME280;14717;46.924;15.474;2023-01-27T08:11:12;97821.28;;;1.49;94.74
27202;BME280;14717;46.924;15.474;2023-01-27T08:13:37;97828.16;;;1.63;94.01
27202;BME280;14717;46.924;15.474;2023-01-27T08:16:05;97824.84;;;1.61;94.26
27202;BME280;14717;46.924;15.474;2023-01-27T08:18:31;97825.66;;;1.73;95.27
27202;BME280;14717;46.924;15.474;2023-01-27T08:21:02;97829.09;;;1.80;94.32
27202;BME280;14717;46.924;15.474;2023-01-27T08:23:28;97835.47;;;1.74;92.19
27202;BME280;14717;46.924;15.474;2023-01-27T08:25:58;97837.13;;;1.75;92.92
27202;BME280;14717;46.924;15.474;2023-01-27T08:28:25;97836.09;;;1.76;92.57
27202;BME280;14717;46.924;15.474;2023-01-27T08:30:51;97839.63;;;1.65;91.62
27202;BME280;14717;46.924;15.474;2023-01-27T08:33:22;97839.41;;;1.67;92.17
27202;BME280;14717;46.924;15.474;2023-01-27T08:35:48;97840.47;;;1.54;92.50
27202;BME280;14717;46.924;15.474;2023-01-27T08:38:16;97848.16;;;1.57;91.53
27202;BME280;14717;46.924;15.474;2023-01-27T08:40:42;97853.59;;;1.46;91.53
27202;BME280;14717;46.924;15.474;2023-01-27T08:43:08;97841.28;;;1.32;91.48
27202;BME280;14717;46.924;15.474;2023-01-27T08:45:34;97848.97;;;1.24;92.31
27202;BME280;14717;46.924;15.474;2023-01-27T08:48:02;97847.19;;;1.29;92.40
27202;BME280;14717;46.924;15.474;2023-01-27T08:50:27;97851.56;;;1.19;93.22
27202;BME280;14717;46.924;15.474;2023-01-27T08:52:56;97839.03;;;1.18;94.27
27202;BME280;14717;46.924;15.474;2023-01-27T08:55:27;97845.31;;;1.41;94.95
27202;BME280;14717;46.924;15.474;2023-01-27T08:57:52;97845.28;;;1.29;93.81
27202;BME280;14717;46.924;15.474;2023-01-27T09:00:18;97836.44;;;1.34;95.26
27202;BME280;14717;46.924;15.474;2023-01-27T09:02:44;97849.19;;;1.11;93.49
27202;BME280;14717;46.924;15.474;2023-01-27T09:05:10;97844.81;;;1.10;93.88
27202;BME280;14717;46.924;15.474;2023-01-27T09:07:35;97856.66;;;1.15;94.10
27202;BME280;14717;46.924;15.474;2023-01-27T09:10:02;97860.78;;;1.18;93.91
27202;BME280;14717;46.924;15.474;2023-01-27T09:12:27;97862.78;;;1.11;94.22
27202;BME280;14717;46.924;15.474;2023-01-27T09:14:52;97865.50;;;1.11;93.96
27202;BME280;14717;46.924;15.474;2023-01-27T09:17:18;97874.84;;;1.15;94.92
27202;BME280;14717;46.924;15.474;2023-01-27T09:19:45;97868.09;;;1.06;94.41
27202;BME280;14717;46.924;15.474;2023-01-27T09:22:10;97876.94;;;1.01;94.80
27202;BME280;14717;46.924;15.474;2023-01-27T09:24:35;97887.59;;;1.03;95.23
27202;BME280;14717;46.924;15.474;2023-01-27T09:27:01;97880.47;;;1.02;95.91
27202;BME280;14717;46.924;15.474;2023-01-27T09:29:26;97882.28;;;1.08;95.43
27202;BME280;14717;46.924;15.474;2023-01-27T09:31:51;97882.03;;;0.98;95.46
27202;BME280;14717;46.924;15.474;2023-01-27T09:34:17;97885.34;;;1.00;95.63
27202;BME280;14717;46.924;15.474;2023-01-27T09:36:47;97882.50;;;1.06;95.67
27202;BME280;14717;46.924;15.474;2023-01-27T09:39:16;97882.44;;;1.24;95.44
27202;BME280;14717;46.924;15.474;2023-01-27T09:41:58;97869.44;;;1.37;95.75
27202;BME280;14717;46.924;15.474;2023-01-27T09:47:27;97871.78;;;1.23;94.91
27202;BME280;14717;46.924;15.474;2023-01-27T09:53:17;97870.63;;;1.19;93.93
27202;BME280;14717;46.924;15.474;2023-01-27T10:01:07;97867.56;;;1.27;95.92
27202;BME280;14717;46.924;15.474;2023-01-27T10:28:14;97842.00;;;1.84;89.73
27202;BME280;14717;46.924;15.474;2023-01-27T10:30:53;97835.66;;;2.07;91.21
27202;BME280;14717;46.924;15.474;2023-01-27T10:33:30;97835.41;;;2.19;91.70
27202;BME280;14717;46.924;15.474;2023-01-27T10:36:05;97833.44;;;2.31;91.73
27202;BME280;14717;46.924;15.474;2023-01-27T10:41:28;97822.03;;;2.46;90.34
27202;BME280;14717;46.924;15.474;2023-01-27T10:46:52;97827.06;;;2.65;87.85
27202;BME280;14717;46.924;15.474;2023-01-27T10:49:24;97821.66;;;2.53;87.16
27202;BME280;14717;46.924;15.474;2023-01-27T10:54:38;97821.03;;;2.79;87.88
27202;BME280;14717;46.924;15.474;2023-01-27T10:57:12;97810.78;;;2.42;86.11
27202;BME280;14717;46.924;15.474;2023-01-27T10:59:44;97813.19;;;2.66;88.29
27202;BME280;14717;46.924;15.474;2023-01-27T11:02:24;97820.69;;;2.76;89.62
27202;BME280;14717;46.924;15.474;2023-01-27T11:04:57;97814.28;;;2.82;88.78
27202;BME280;14717;46.924;15.474;2023-01-27T11:07:24;97810.84;;;3.02;89.08
27202;BME280;14717;46.924;15.474;2023-01-27T11:09:56;97804.22;;;2.98;86.50
27202;BME280;14717;46.924;15.474;2023-01-27T11:12:29;97807.94;;;3.09;85.80
27202;BME280;14717;46.924;15.474;2023-01-27T11:14:56;97804.72;;;3.28;86.96
27202;BME280;14717;46.924;15.474;2023-01-27T11:17:40;97798.25;;;3.50;85.72
27202;BME280;14717;46.924;15.474;2023-01-27T11:20:25;97795.28;;;3.36;83.31
27202;BME280;14717;46.924;15.474;2023-01-27T11:25:52;97795.22;;;3.31;83.05
27202;BME280;14717;46.924;15.474;2023-01-27T11:28:41;97796.84;;;3.48;82.09
27202;BME280;14717;46.924;15.474;2023-01-27T11:31:31;97785.28;;;3.41;79.46
27202;BME280;14717;46.924;15.474;2023-01-27T11:36:43;97793.31;;;3.31;78.20
27202;BME280;14717;46.924;15.474;2023-01-27T11:39:10;97785.53;;;3.23;76.08
27202;BME280;14717;46.924;15.474;2023-01-27T11:41:41;97793.97;;;3.22;80.14
27202;BME280;14717;46.924;15.474;2023-01-27T11:44:18;97791.47;;;3.37;80.86
27202;BME280;14717;46.924;15.474;2023-01-27T11:46:45;97780.56;;;3.20;82.09
27202;BME280;14717;46.924;15.474;2023-01-27T11:49:25;97772.59;;;3.35;82.79
27202;BME280;14717;46.924;15.474;2023-01-27T11:51:59;97770.81;;;3.40;79.87
27202;BME280;14717;46.924;15.474;2023-01-27T11:54:36;97773.22;;;3.37;80.95
27202;BME280;14717;46.924;15.474;2023-01-27T11:57:03;97765.94;;;3.26;83.02
27202;BME280;14717;46.924;15.474;2023-01-27T11:59:31;97759.53;;;3.53;82.76
27202;BME280;14717;46.924;15.474;2023-01-27T12:05:02;97768.97;;;3.46;80.67
27202;BME280;14717;46.924;15.474;2023-01-27T12:07:43;97770.59;;;3.09;79.94
27202;BME280;14717;46.924;15.474;2023-01-27T12:13:24;97761.28;;;3.43;83.01
27202;BME280;14717;46.924;15.474;2023-01-27T12:15:53;97755.53;;;3.61;79.85
27202;BME280;14717;46.924;15.474;2023-01-27T12:18:20;97744.75;;;3.71;80.88
27202;BME280;14717;46.924;15.474;2023-01-27T12:21:07;97744.25;;;3.74;80.53
27202;BME280;14717;46.924;15.474;2023-01-27T12:23:54;97748.06;;;3.73;77.62
27202;BME280;14717;46.924;15.474;2023-01-27T12:26:34;97751.22;;;3.65;78.67
27202;BME280;14717;46.924;15.474;2023-01-27T12:29:13;97745.56;;;3.71;78.58
27202;BME280;14717;46.924;15.474;2023-01-27T12:31:52;97740.72;;;3.73;77.30
27202;BME280;14717;46.924;15.474;2023-01-27T12:34:28;97733.19;;;3.64;79.31
27202;BME280;14717;46.924;15.474;2023-01-27T12:36:55;97739.28;;;3.71;80.41
27202;BME280;14717;46.924;15.474;2023-01-27T12:41:56;97729.75;;;3.52;79.35
27202;BME280;14717;46.924;15.474;2023-01-27T12:44:21;97733.19;;;3.64;80.24
27202;BME280;14717;46.924;15.474;2023-01-27T12:47:18;97726.38;;;3.66;80.05
27202;BME280;14717;46.924;15.474;2023-01-27T12:49:44;97723.91;;;3.65;80.31
27202;BME280;14717;46.924;15.474;2023-01-27T12:52:18;97722.09;;;3.70;80.44
27202;BME280;14717;46.924;15.474;2023-01-27T12:54:44;97722.41;;;3.74;81.05
27202;BME280;14717;46.924;15.474;2023-01-27T12:57:16;97716.81;;;3.85;80.75
27202;BME280;14717;46.924;15.474;2023-01-27T12:59:47;97720.94;;;3.66;76.88
27202;BME280;14717;46.924;15.474;2023-01-27T13:02:30;97720.00;;;3.77;77.64
27202;BME280;14717;46.924;15.474;2023-01-27T13:05:03;97722.63;;;3.51;74.71
27202;BME280;14717;46.924;15.474;2023-01-27T13:07:38;97717.78;;;3.37;77.41
27202;BME280;14717;46.924;15.474;2023-01-27T13:10:15;97716.34;;;3.50;77.79
27202;BME280;14717;46.924;15.474;2023-01-27T13:12:50;97723.50;;;3.56;76.75
27202;BME280;14717;46.924;15.474;2023-01-27T13:15:18;97714.88;;;3.43;76.22
27202;BME280;14717;46.924;15.474;2023-01-27T13:17:50;97710.34;;;3.48;76.75
27202;BME280;14717;46.924;15.474;2023-01-27T13:20:39;97704.09;;;3.53;76.55
27202;BME280;14717;46.924;15.474;2023-01-27T13:23:28;97708.16;;;3.50;76.89
27202;BME280;14717;46.924;15.474;2023-01-27T13:28:38;97714.66;;;3.66;75.69
27202;BME280;14717;46.924;15.474;2023-01-27T13:31:11;97712.53;;;3.73;76.12
27202;BME280;14717;46.924;15.474;2023-01-27T13:33:53;97719.59;;;3.69;75.59
27202;BME280;14717;46.924;15.474;2023-01-27T13:36:34;97720.25;;;3.76;75.27
27202;BME280;14717;46.924;15.474;2023-01-27T13:45:35;97715.84;;;3.53;75.13
27202;BME280;14717;46.924;15.474;2023-01-27T13:50:32;97714.41;;;3.30;75.57
27202;BME280;14717;46.924;15.474;2023-01-27T13:53:02;97713.72;;;3.39;77.55
27202;BME280;14717;46.924;15.474;2023-01-27T14:12:11;97727.09;;;3.03;80.52
27202;BME280;14717;46.924;15.474;2023-01-27T14:15:21;97721.66;;;2.87;84.02
27202;BME280;14717;46.924;15.474;2023-01-27T14:20:44;97731.47;;;2.55;88.51
27202;BME280;14717;46.924;15.474;2023-01-27T14:25:53;97737.50;;;2.29;88.59
27202;BME280;14717;46.924;15.474;2023-01-27T14:31:23;97740.03;;;2.47;89.49
27202;BME280;14717;46.924;15.474;2023-01-27T14:36:51;97751.00;;;2.36;91.21
27202;BME280;14717;46.924;15.474;2023-01-27T14:39:42;97748.50;;;2.34;91.35
27202;BME280;14717;46.924;15.474;2023-01-27T14:42:20;97746.13;;;2.38;92.78
27202;BME280;14717;46.924;15.474;2023-01-27T14:44:53;97753.94;;;2.07;89.57
27202;BME280;14717;46.924;15.474;2023-01-27T14:50:32;97754.03;;;1.84;90.59
27202;BME280;14717;46.924;15.474;2023-01-27T14:53:16;97756.16;;;1.82;92.13
27202;BME280;14717;46.924;15.474;2023-01-27T14:56:14;97754.53;;;1.81;91.20